createdAt,value
2023-01-21T00:00:10.021Z,100281.31
2023-01-21T00:02:36.543Z,100279.00
2023-01-21T00:05:03.206Z,100277.81
2023-01-21T00:07:29.757Z,100287.88
2023-01-21T00:09:56.231Z,100282.44
2023-01-21T00:12:22.725Z,100276.91
2023-01-21T00:14:49.205Z,100278.31
2023-01-21T00:17:15.654Z,100271.22
2023-01-21T00:19:42.444Z,100264.41
2023-01-21T00:22:09.179Z,100273.50
2023-01-21T00:24:35.723Z,100269.63
2023-01-21T00:27:02.229Z,100267.88
2023-01-21T00:29:28.691Z,100270.31
2023-01-21T00:31:55.282Z,100270.16
2023-01-21T00:34:21.861Z,100264.25
2023-01-21T00:36:48.430Z,100265.78
2023-01-21T00:39:14.960Z,100260.84
2023-01-21T00:41:41.507Z,100265.38
2023-01-21T00:44:08.026Z,100262.94
2023-01-21T00:46:34.604Z,100259.94
2023-01-21T00:49:01.208Z,100260.69
2023-01-21T00:51:27.948Z,100260.13
2023-01-21T00:53:54.436Z,100253.38
2023-01-21T00:56:21.465Z,100251.75
2023-01-21T00:58:48.348Z,100235.97
2023-01-21T01:01:18.280Z,100238.84
2023-01-21T01:03:45.766Z,100231.69
2023-01-21T01:06:14.911Z,100224.81
2023-01-21T01:08:42.979Z,100226.50
2023-01-21T01:11:10.123Z,100225.09
2023-01-21T01:13:36.937Z,100225.06
2023-01-21T01:16:03.824Z,100233.97
2023-01-21T01:18:33.576Z,100232.06
2023-01-21T01:21:01.136Z,100234.13
2023-01-21T01:23:28.195Z,100230.06
2023-01-21T01:25:57.143Z,100226.88
2023-01-21T01:28:23.713Z,100228.56
2023-01-21T01:30:50.398Z,100229.97
2023-01-21T01:33:17.183Z,100232.47
2023-01-21T01:35:47.046Z,100233.13
2023-01-21T01:38:20.145Z,100232.00
2023-01-21T01:40:48.000Z,100233.28
2023-01-21T01:43:18.928Z,100235.19
2023-01-21T01:45:47.336Z,100232.41
2023-01-21T01:48:22.769Z,100229.84
2023-01-21T01:50:49.691Z,100227.56
2023-01-21T01:53:18.711Z,100232.47
2023-01-21T01:55:47.163Z,100237.25
2023-01-21T01:58:15.839Z,100231.84
2023-01-21T02:00:42.385Z,100233.22
2023-01-21T02:03:27.420Z,100228.09
2023-01-21T02:05:55.498Z,100231.97
2023-01-21T02:08:24.061Z,100226.81
2023-01-21T02:10:51.446Z,100225.03
2023-01-21T02:13:18.100Z,100226.56
2023-01-21T02:16:20.149Z,100229.84
2023-01-21T02:19:06.163Z,100223.50
2023-01-21T02:21:52.378Z,100223.50
2023-01-21T02:24:40.769Z,100222.06
2023-01-21T02:27:31.711Z,100222.50
2023-01-21T02:29:58.110Z,100239.16
2023-01-21T02:32:56.180Z,100248.34
2023-01-21T02:35:43.092Z,100231.31
2023-01-21T02:38:34.533Z,100232.44
2023-01-21T02:41:11.540Z,100233.97
2023-01-21T02:43:53.914Z,100230.16
2023-01-21T02:46:28.775Z,100227.84
2023-01-21T02:49:04.422Z,100224.47
2023-01-21T02:51:30.936Z,100226.03
2023-01-21T02:53:57.461Z,100224.59
2023-01-21T02:56:27.731Z,100218.09
2023-01-21T02:59:02.801Z,100220.63
2023-01-21T03:01:54.901Z,100220.84
2023-01-21T03:04:42.663Z,100229.53
2023-01-21T03:07:16.245Z,100214.78
2023-01-21T03:09:42.959Z,100210.94
2023-01-21T03:12:36.651Z,100223.19
2023-01-21T03:15:30.036Z,100225.63
2023-01-21T03:18:04.859Z,100232.63
2023-01-21T03:20:37.813Z,100236.09
2023-01-21T03:23:10.747Z,100247.19
2023-01-21T03:25:38.062Z,100257.81
2023-01-21T03:28:13.494Z,100259.81
2023-01-21T03:30:43.878Z,100268.41
2023-01-21T03:33:13.094Z,100260.31
2023-01-21T03:35:44.063Z,100256.66
2023-01-21T03:38:14.729Z,100257.44
2023-01-21T03:40:47.411Z,100257.13
2023-01-21T03:43:14.079Z,100254.44
2023-01-21T03:45:47.132Z,100251.16
2023-01-21T03:48:20.693Z,100239.56
2023-01-21T03:50:55.699Z,100233.16
2023-01-21T03:53:22.702Z,100229.25
2023-01-21T03:55:52.447Z,100233.00
2023-01-21T03:58:18.987Z,100231.00
2023-01-21T04:00:46.784Z,100228.56
2023-01-21T04:03:13.302Z,100223.44
2023-01-21T04:05:39.821Z,100213.25
2023-01-21T04:08:06.424Z,100210.78
2023-01-21T04:10:33.020Z,100208.53
2023-01-21T04:12:59.548Z,100203.50
2023-01-21T04:15:26.150Z,100206.63
2023-01-21T04:17:52.654Z,100202.50
2023-01-21T04:20:19.772Z,100190.91
2023-01-21T04:22:46.374Z,100189.91
2023-01-21T04:25:12.919Z,100182.69
2023-01-21T04:27:39.505Z,100187.91
2023-01-21T04:30:06.683Z,100176.50
2023-01-21T04:32:33.639Z,100171.13
2023-01-21T04:35:00.163Z,100172.59
2023-01-21T04:37:26.626Z,100165.41
2023-01-21T04:39:53.151Z,100169.88
2023-01-21T04:42:19.664Z,100158.72
2023-01-21T04:44:46.109Z,100151.09
2023-01-21T04:47:12.603Z,100155.56
2023-01-21T04:49:39.174Z,100158.22
2023-01-21T04:52:06.152Z,100166.19
2023-01-21T04:54:33.010Z,100170.13
2023-01-21T04:56:59.475Z,100171.66
2023-01-21T04:59:25.981Z,100173.91
2023-01-21T05:01:52.549Z,100177.94
2023-01-21T05:04:19.059Z,100171.16
2023-01-21T05:06:45.519Z,100172.78
2023-01-21T05:09:12.056Z,100174.78
2023-01-21T05:11:38.641Z,100169.31
2023-01-21T05:14:05.288Z,100176.19
2023-01-21T05:16:31.868Z,100181.56
2023-01-21T05:18:58.471Z,100182.56
2023-01-21T05:21:25.092Z,100192.22
2023-01-21T05:23:51.589Z,100194.75
2023-01-21T05:26:19.462Z,100197.69
2023-01-21T05:28:46.063Z,100211.53
2023-01-21T05:31:12.645Z,100233.00
2023-01-21T05:33:39.415Z,100244.88
2023-01-21T05:36:06.612Z,100257.28
2023-01-21T05:38:33.136Z,100271.19
2023-01-21T05:41:01.784Z,100289.94
2023-01-21T05:43:28.511Z,100299.88
2023-01-21T05:45:55.831Z,100305.28
2023-01-21T05:48:23.193Z,100331.25
2023-01-21T05:50:49.987Z,100338.59
2023-01-21T05:53:17.694Z,100361.84
2023-01-21T05:55:44.235Z,100376.81
2023-01-21T05:58:10.727Z,100367.97
2023-01-21T06:00:37.877Z,100378.00
2023-01-21T06:03:04.681Z,100375.84
2023-01-21T06:05:31.159Z,100372.66
2023-01-21T06:07:57.718Z,100379.22
2023-01-21T06:10:24.272Z,100375.84
2023-01-21T06:12:52.006Z,100383.94
2023-01-21T06:15:19.351Z,100380.53
2023-01-21T06:17:47.480Z,100385.22
2023-01-21T06:20:14.366Z,100398.81
2023-01-21T06:22:41.064Z,100402.06
2023-01-21T06:25:07.851Z,100405.34
2023-01-21T06:27:38.142Z,100406.44
2023-01-21T06:30:06.239Z,100412.81
2023-01-21T06:32:33.790Z,100407.13
2023-01-21T06:35:00.365Z,100403.69
2023-01-21T06:37:26.961Z,100405.25
2023-01-21T06:39:53.986Z,100399.88
2023-01-21T06:42:20.499Z,100402.97
2023-01-21T06:44:47.150Z,100389.06
2023-01-21T06:47:14.307Z,100389.50
2023-01-21T06:49:40.930Z,100382.13
2023-01-21T06:52:07.450Z,100380.00
2023-01-21T06:54:33.952Z,100360.47
2023-01-21T06:57:00.554Z,100357.03
2023-01-21T06:59:27.174Z,100348.75
2023-01-21T07:01:53.705Z,100343.19
2023-01-21T07:04:20.320Z,100333.84
2023-01-21T07:06:46.823Z,100338.00
2023-01-21T07:09:13.379Z,100324.16
2023-01-21T07:11:40.272Z,100311.91
2023-01-21T07:14:06.800Z,100305.97
2023-01-21T07:16:33.404Z,100301.94
2023-01-21T07:18:59.928Z,100306.53
2023-01-21T07:21:26.576Z,100288.66
2023-01-21T07:23:54.036Z,100293.03
2023-01-21T07:26:20.579Z,100297.66
2023-01-21T07:28:47.154Z,100297.78
2023-01-21T07:31:13.912Z,100299.41
2023-01-21T07:33:41.034Z,100292.75
2023-01-21T07:36:08.021Z,100297.22
2023-01-21T07:38:34.558Z,100296.38
2023-01-21T07:41:01.050Z,100306.56
2023-01-21T07:43:28.248Z,100307.13
2023-01-21T07:45:57.980Z,100308.41
2023-01-21T07:48:26.445Z,100310.72
2023-01-21T07:50:56.153Z,100306.56
2023-01-21T07:53:22.685Z,100308.19
2023-01-21T07:55:49.213Z,100315.97
2023-01-21T07:58:15.724Z,100320.50
2023-01-21T08:00:42.397Z,100336.97
2023-01-21T08:03:09.003Z,100346.38
2023-01-21T08:05:35.584Z,100350.56
2023-01-21T08:08:02.167Z,100366.66
2023-01-21T08:10:28.733Z,100370.81
2023-01-21T08:12:55.258Z,100385.31
2023-01-21T08:15:21.788Z,100386.03
2023-01-21T08:17:48.870Z,100394.34
2023-01-21T08:20:15.404Z,100404.00
2023-01-21T08:22:41.974Z,100414.00
2023-01-21T08:25:08.998Z,100416.63
2023-01-21T08:27:35.544Z,100422.00
2023-01-21T08:30:02.138Z,100432.09
2023-01-21T08:32:31.580Z,100436.50
2023-01-21T08:34:58.195Z,100447.59
2023-01-21T08:37:24.891Z,100447.06
2023-01-21T08:39:51.514Z,100452.22
2023-01-21T08:42:18.168Z,100466.41
2023-01-21T08:44:46.092Z,100468.06
2023-01-21T08:47:12.715Z,100460.72
2023-01-21T08:49:39.226Z,100468.75
2023-01-21T08:52:05.853Z,100475.34
2023-01-21T08:54:32.377Z,100482.00
2023-01-21T08:56:58.839Z,100486.75
2023-01-21T08:59:28.804Z,100488.75
2023-01-21T09:01:56.474Z,100504.56
2023-01-21T09:04:23.631Z,100499.53
2023-01-21T09:06:50.218Z,100502.25
2023-01-21T09:09:17.419Z,100511.56
2023-01-21T09:11:44.060Z,100511.78
2023-01-21T09:14:10.640Z,100514.53
2023-01-21T09:16:37.456Z,100507.19
2023-01-21T09:19:04.411Z,100516.28
2023-01-21T09:21:34.619Z,100515.16
2023-01-21T09:24:01.331Z,100508.88
2023-01-21T09:26:28.001Z,100519.53
2023-01-21T09:28:59.424Z,100512.84
2023-01-21T09:31:28.230Z,100506.78
2023-01-21T09:33:57.980Z,100508.19
2023-01-21T09:36:27.180Z,100501.59
2023-01-21T09:38:54.506Z,100492.72
2023-01-21T09:41:26.806Z,100488.09
2023-01-21T09:44:18.211Z,100483.94
2023-01-21T09:47:02.572Z,100467.72
2023-01-21T09:49:37.728Z,100470.34
2023-01-21T09:52:33.271Z,100446.31
2023-01-21T09:55:01.471Z,100449.84
2023-01-21T09:57:45.750Z,100426.50
2023-01-21T10:00:33.158Z,100433.44
2023-01-21T10:03:08.652Z,100442.34
2023-01-21T10:05:53.037Z,100434.31
2023-01-21T10:08:45.910Z,100444.38
2023-01-21T10:11:31.144Z,100450.66
2023-01-21T10:14:39.652Z,100445.41
2023-01-21T10:17:18.319Z,100451.16
2023-01-21T10:20:00.478Z,100464.16
2023-01-21T10:22:28.530Z,100444.19
2023-01-21T10:25:03.129Z,100444.66
2023-01-21T10:27:35.368Z,100439.53
2023-01-21T10:30:29.356Z,100443.16
2023-01-21T10:32:56.529Z,100456.22
2023-01-21T10:35:46.092Z,100451.28
2023-01-21T10:38:37.139Z,100448.44
2023-01-21T10:41:22.542Z,100450.66
2023-01-21T10:44:00.293Z,100445.72
2023-01-21T10:46:33.511Z,100444.63
2023-01-21T10:49:41.642Z,100446.81
2023-01-21T10:52:23.142Z,100443.50
2023-01-21T10:55:23.640Z,100449.13
2023-01-21T10:57:58.895Z,100446.47
2023-01-21T11:00:31.562Z,100451.34
2023-01-21T11:03:02.747Z,100465.63
2023-01-21T11:05:30.777Z,100448.56
2023-01-21T11:07:58.696Z,100454.41
2023-01-21T11:10:27.020Z,100453.59
2023-01-21T11:12:55.196Z,100456.13
2023-01-21T11:15:23.031Z,100464.19
2023-01-21T11:17:56.666Z,100450.09
2023-01-21T11:20:28.318Z,100448.94
2023-01-21T11:22:55.299Z,100430.34
2023-01-21T11:25:41.619Z,100430.22
2023-01-21T11:28:26.611Z,100414.25
2023-01-21T11:31:26.967Z,100413.88
2023-01-21T11:33:55.371Z,100403.59
2023-01-21T11:36:21.972Z,100404.13
2023-01-21T11:39:00.911Z,100409.19
2023-01-21T11:41:27.914Z,100405.47
2023-01-21T11:44:07.113Z,100400.44
2023-01-21T11:46:39.670Z,100387.41
2023-01-21T11:49:09.133Z,100392.81
2023-01-21T11:51:37.499Z,100380.97
2023-01-21T11:54:13.369Z,100374.28
2023-01-21T11:56:43.349Z,100368.94
2023-01-21T11:59:34.277Z,100349.84
2023-01-21T12:02:03.929Z,100350.25
2023-01-21T12:04:31.734Z,100318.72
2023-01-21T12:07:00.563Z,100312.06
2023-01-21T12:09:29.185Z,100292.50
2023-01-21T12:12:26.498Z,100277.66
2023-01-21T12:14:59.262Z,100266.28
2023-01-21T12:17:41.351Z,100240.38
2023-01-21T12:20:48.441Z,100226.97
2023-01-21T12:23:47.194Z,100213.22
2023-01-21T12:26:22.630Z,100221.78
2023-01-21T12:28:55.003Z,100219.25
2023-01-21T12:31:37.317Z,100217.59
2023-01-21T12:34:23.313Z,100221.13
2023-01-21T12:36:54.064Z,100212.59
2023-01-21T12:39:29.782Z,100206.44
2023-01-21T12:42:08.986Z,100208.81
2023-01-21T12:44:42.131Z,100207.53
2023-01-21T12:47:23.657Z,100210.00
2023-01-21T12:50:14.362Z,100207.50
2023-01-21T12:53:09.777Z,100209.59
2023-01-21T12:56:01.007Z,100200.75
2023-01-21T12:58:32.638Z,100199.75
2023-01-21T13:01:12.035Z,100199.75
2023-01-21T13:03:59.873Z,100205.28
2023-01-21T13:06:52.397Z,100200.03
2023-01-21T13:09:55.099Z,100183.69
2023-01-21T13:12:25.754Z,100174.44
2023-01-21T13:14:59.398Z,100163.88
2023-01-21T13:17:32.162Z,100167.19
2023-01-21T13:19:59.779Z,100157.22
2023-01-21T13:22:36.732Z,100163.41
2023-01-21T13:25:09.768Z,100175.16
2023-01-21T13:27:47.384Z,100179.25
2023-01-21T13:30:26.066Z,100183.25
2023-01-21T13:33:14.092Z,100201.09
2023-01-21T13:35:58.378Z,100200.59
2023-01-21T13:39:02.181Z,100209.28
2023-01-21T13:41:36.248Z,100232.16
2023-01-21T13:44:33.414Z,100245.47
2023-01-21T13:47:36.774Z,100244.22
2023-01-21T13:50:17.446Z,100256.56
2023-01-21T13:52:55.862Z,100296.34
2023-01-21T13:55:37.379Z,100299.97
2023-01-21T13:58:22.569Z,100303.81
2023-01-21T14:00:51.822Z,100291.16
2023-01-21T14:03:21.109Z,100298.00
2023-01-21T14:05:59.829Z,100334.91
2023-01-21T14:08:40.901Z,100316.88
2023-01-21T14:11:50.714Z,100341.28
2023-01-21T14:14:26.339Z,100328.22
2023-01-21T14:16:52.896Z,100323.78
2023-01-21T14:19:36.704Z,100328.22
2023-01-21T14:22:24.851Z,100328.00
2023-01-21T14:25:01.177Z,100332.91
2023-01-21T14:27:43.148Z,100337.75
2023-01-21T14:30:18.672Z,100343.47
2023-01-21T14:32:55.213Z,100353.03
2023-01-21T14:35:33.144Z,100343.97
2023-01-21T14:38:05.956Z,100347.66
2023-01-21T14:40:35.189Z,100353.91
2023-01-21T14:43:02.392Z,100351.16
2023-01-21T14:45:54.754Z,100357.69
2023-01-21T14:48:56.041Z,100357.72
2023-01-21T14:51:22.822Z,100362.56
2023-01-21T14:53:52.344Z,100371.34
2023-01-21T14:56:29.098Z,100364.31
2023-01-21T14:59:09.196Z,100371.66
2023-01-21T15:01:38.522Z,100369.06
2023-01-21T15:04:39.013Z,100359.06
2023-01-21T15:07:17.076Z,100365.97
2023-01-21T15:09:50.958Z,100382.34
2023-01-21T15:12:22.595Z,100376.59
2023-01-21T15:14:49.986Z,100396.19
2023-01-21T15:17:46.140Z,100363.72
2023-01-21T15:20:50.316Z,100363.22
2023-01-21T15:23:30.247Z,100386.06
2023-01-21T15:26:12.200Z,100386.69
2023-01-21T15:28:47.514Z,100377.53
2023-01-21T15:31:40.722Z,100376.16
2023-01-21T15:34:18.284Z,100382.03
2023-01-21T15:36:57.027Z,100391.25
2023-01-21T15:39:32.430Z,100390.09
2023-01-21T15:42:36.511Z,100399.06
2023-01-21T15:45:05.547Z,100399.81
2023-01-21T15:47:50.790Z,100407.03
2023-01-21T15:50:40.591Z,100398.66
2023-01-21T15:53:30.760Z,100406.56
2023-01-21T15:56:28.276Z,100401.38
2023-01-21T15:59:11.703Z,100401.84
2023-01-21T16:01:40.001Z,100396.03
2023-01-21T16:04:25.302Z,100399.63
2023-01-21T16:06:51.799Z,100398.72
2023-01-21T16:09:35.536Z,100419.19
2023-01-21T16:12:25.892Z,100422.38
2023-01-21T16:14:55.408Z,100416.88
2023-01-21T16:17:51.023Z,100421.44
2023-01-21T16:20:17.677Z,100429.31
2023-01-21T16:22:47.916Z,100432.69
2023-01-21T16:25:18.970Z,100435.25
2023-01-21T16:27:47.601Z,100444.84
2023-01-21T16:30:19.555Z,100440.50
2023-01-21T16:32:47.041Z,100449.53
2023-01-21T16:35:13.936Z,100442.06
2023-01-21T16:37:43.650Z,100448.44
2023-01-21T16:40:20.890Z,100446.47
2023-01-21T16:42:47.500Z,100440.00
2023-01-21T16:45:21.004Z,100443.19
2023-01-21T16:47:56.934Z,100448.34
2023-01-21T16:50:26.670Z,100445.28
2023-01-21T16:52:54.546Z,100442.84
2023-01-21T16:55:25.776Z,100444.19
2023-01-21T16:57:55.581Z,100451.66
2023-01-21T17:00:32.805Z,100450.66
2023-01-21T17:03:00.858Z,100449.66
2023-01-21T17:05:34.611Z,100453.31
2023-01-21T17:08:09.096Z,100455.28
2023-01-21T17:10:40.001Z,100462.97
2023-01-21T17:13:14.048Z,100465.19
2023-01-21T17:15:49.746Z,100471.22
2023-01-21T17:18:23.088Z,100481.09
2023-01-21T17:20:53.668Z,100475.50
2023-01-21T17:23:27.867Z,100470.88
2023-01-21T17:26:16.510Z,100468.91
2023-01-21T17:28:57.781Z,100470.88
2023-01-21T17:31:28.780Z,100468.56
2023-01-21T17:34:10.635Z,100472.41
2023-01-21T17:36:38.993Z,100478.69
2023-01-21T17:39:07.559Z,100470.78
2023-01-21T17:41:37.676Z,100463.63
2023-01-21T17:44:15.069Z,100464.19
2023-01-21T17:46:50.342Z,100473.09
2023-01-21T17:49:23.445Z,100468.34
2023-01-21T17:51:52.304Z,100472.31
2023-01-21T17:54:23.093Z,100473.28
2023-01-21T17:56:56.609Z,100469.56
2023-01-21T17:59:35.236Z,100481.50
2023-01-21T18:02:03.745Z,100475.25
2023-01-21T18:04:30.340Z,100470.31
2023-01-21T18:06:58.062Z,100473.72
2023-01-21T18:09:26.016Z,100487.13
2023-01-21T18:11:55.190Z,100492.50
2023-01-21T18:14:24.223Z,100493.03
2023-01-21T18:16:53.534Z,100496.13
2023-01-21T18:19:36.020Z,100505.00
2023-01-21T18:22:05.114Z,100503.34
2023-01-21T18:24:32.188Z,100504.63
2023-01-21T18:27:02.209Z,100495.22
2023-01-21T18:29:31.644Z,100501.38
2023-01-21T18:31:58.660Z,100509.69
2023-01-21T18:34:25.393Z,100520.75
2023-01-21T18:36:52.016Z,100518.34
2023-01-21T18:39:19.859Z,100535.56
2023-01-21T18:41:47.481Z,100534.34
2023-01-21T18:44:15.228Z,100535.88
2023-01-21T18:46:43.376Z,100535.53
2023-01-21T18:49:16.495Z,100545.38
2023-01-21T18:51:43.407Z,100552.44
2023-01-21T18:54:10.843Z,100559.66
2023-01-21T18:56:38.204Z,100567.41
2023-01-21T18:59:12.589Z,100580.66
2023-01-21T19:01:39.802Z,100588.50
2023-01-21T19:04:09.537Z,100589.63
2023-01-21T19:06:36.777Z,100597.63
2023-01-21T19:09:03.906Z,100599.25
2023-01-21T19:11:31.979Z,100601.28
2023-01-21T19:13:58.678Z,100603.41
2023-01-21T19:16:25.406Z,100608.47
2023-01-21T19:18:52.069Z,100612.22
2023-01-21T19:21:19.265Z,100619.84
2023-01-21T19:23:45.904Z,100616.34
2023-01-21T19:26:14.335Z,100621.50
2023-01-21T19:28:41.027Z,100629.22
2023-01-21T19:31:07.677Z,100635.78
2023-01-21T19:33:34.335Z,100629.13
2023-01-21T19:36:05.288Z,100636.97
2023-01-21T19:38:32.122Z,100633.38
2023-01-21T19:40:58.644Z,100631.78
2023-01-21T19:43:25.191Z,100629.16
2023-01-21T19:45:52.753Z,100631.28
2023-01-21T19:48:21.992Z,100634.94
2023-01-21T19:50:49.358Z,100646.06
2023-01-21T19:53:18.513Z,100653.63
2023-01-21T19:55:46.377Z,100648.34
2023-01-21T19:58:20.199Z,100656.19
2023-01-21T20:00:49.313Z,100665.47
2023-01-21T20:03:21.430Z,100674.84
2023-01-21T20:05:51.881Z,100676.34
2023-01-21T20:08:22.299Z,100669.16
2023-01-21T20:10:48.941Z,100681.28
2023-01-21T20:13:16.253Z,100681.16
2023-01-21T20:15:44.680Z,100678.13
2023-01-21T20:18:21.115Z,100687.19
2023-01-21T20:20:47.806Z,100685.97
2023-01-21T20:23:15.993Z,100679.38
2023-01-21T20:25:44.085Z,100681.41
2023-01-21T20:28:34.934Z,100684.31
2023-01-21T20:31:06.373Z,100691.38
2023-01-21T20:33:33.587Z,100693.91
2023-01-21T20:36:01.063Z,100706.75
2023-01-21T20:38:30.316Z,100709.91
2023-01-21T20:40:59.300Z,100712.94
2023-01-21T20:43:26.578Z,100711.78
2023-01-21T20:45:55.141Z,100707.88
2023-01-21T20:48:26.378Z,100721.13
2023-01-21T20:50:54.199Z,100725.66
2023-01-21T20:53:21.380Z,100717.59
2023-01-21T20:55:50.880Z,100720.72
2023-01-21T20:58:19.187Z,100721.13
2023-01-21T21:00:46.776Z,100724.28
2023-01-21T21:03:18.190Z,100714.06
2023-01-21T21:05:49.601Z,100719.09
2023-01-21T21:08:21.587Z,100712.81
2023-01-21T21:10:50.833Z,100697.31
2023-01-21T21:13:17.653Z,100700.56
2023-01-21T21:15:46.509Z,100702.72
2023-01-21T21:18:14.197Z,100709.50
2023-01-21T21:20:41.372Z,100716.81
2023-01-21T21:23:13.122Z,100711.06
2023-01-21T21:25:47.730Z,100708.66
2023-01-21T21:28:16.862Z,100714.31
2023-01-21T21:30:44.287Z,100723.38
2023-01-21T21:33:28.722Z,100719.59
2023-01-21T21:35:56.098Z,100724.91
2023-01-21T21:38:22.657Z,100721.63
2023-01-21T21:40:52.948Z,100730.94
2023-01-21T21:43:32.789Z,100729.06
2023-01-21T21:46:23.993Z,100734.09
2023-01-21T21:48:51.423Z,100726.53
2023-01-21T21:51:18.426Z,100732.97
2023-01-21T21:53:46.416Z,100737.75
2023-01-21T21:56:14.120Z,100736.09
2023-01-21T21:58:40.943Z,100740.75
2023-01-21T22:01:08.907Z,100737.34
2023-01-21T22:03:35.507Z,100743.16
2023-01-21T22:06:04.017Z,100748.06
2023-01-21T22:08:33.205Z,100750.97
2023-01-21T22:11:01.363Z,100743.81
2023-01-21T22:13:28.843Z,100748.56
2023-01-21T22:15:57.539Z,100743.66
2023-01-21T22:18:25.380Z,100746.44
2023-01-21T22:20:55.525Z,100748.81
2023-01-21T22:23:22.960Z,100751.19
2023-01-21T22:25:49.685Z,100754.00
2023-01-21T22:28:16.687Z,100751.06
2023-01-21T22:30:43.432Z,100761.13
2023-01-21T22:33:10.561Z,100752.06
2023-01-21T22:35:37.497Z,100761.63
2023-01-21T22:38:04.267Z,100757.44
2023-01-21T22:40:33.917Z,100762.09
2023-01-21T22:43:00.979Z,100770.31
2023-01-21T22:45:27.625Z,100765.25
2023-01-21T22:47:54.136Z,100771.69
2023-01-21T22:50:20.680Z,100766.16
2023-01-21T22:52:47.206Z,100766.91
2023-01-21T22:55:13.762Z,100779.47
2023-01-21T22:57:40.312Z,100764.03
2023-01-21T23:00:09.888Z,100766.66
2023-01-21T23:02:36.398Z,100767.16
2023-01-21T23:05:03.096Z,100769.53
2023-01-21T23:07:29.808Z,100766.78
2023-01-21T23:09:56.392Z,100765.16
2023-01-21T23:12:23.033Z,100766.78
2023-01-21T23:14:49.616Z,100781.78
2023-01-21T23:17:18.717Z,100776.63
2023-01-21T23:19:45.214Z,100777.25
2023-01-21T23:22:11.815Z,100777.00
2023-01-21T23:24:38.333Z,100785.31
2023-01-21T23:27:04.945Z,100777.13
2023-01-21T23:29:32.342Z,100774.34
2023-01-21T23:31:58.988Z,100780.50
2023-01-21T23:34:25.534Z,100783.41
2023-01-21T23:36:52.040Z,100775.47
2023-01-21T23:39:18.855Z,100776.19
2023-01-21T23:41:45.436Z,100772.16
2023-01-21T23:44:12.018Z,100772.16
2023-01-21T23:46:38.952Z,100764.47
2023-01-21T23:49:05.537Z,100768.00
2023-01-21T23:51:32.035Z,100764.38
2023-01-21T23:53:58.878Z,100767.63
2023-01-21T23:56:25.632Z,100761.06
2023-01-21T23:58:52.463Z,100761.19
